Vega Emtoli — LAQY7 — position and weather

sailwx.info

Track history (hours):
 
Tides and Currents Weather Stations Pressure Air Temp Water Temp Dewpoint Dewpoint Depression Visibility Wind Speed Wind Dir Waves Ship Positions

Vega Emtoli

Last reported at 2015-Feb-03 23:23 UTC. Time now 2015-Mar-29 09:18 UTC.
Position S 23°23' W 041°28'.
Warning: this ship's position is 53 days out of date.

Length 59 m; draft 5.2 m.

Type: Pollution control. MMSI: 258026000.

Date/timePositionNaut miles runAvg speedWind from/ knotsBaromVisibWave heightAir tempDewpointWater temp
2015-Feb-03 23:23S 23°23' W 041°28'8 8.1
2015-Feb-03 22:21S 23°25' W 041°19'8 8.1
2015-Feb-03 21:21S 23°27' W 041°11'6 7.9
2015-Feb-03 20:33S 23°28' W 041°04'2 1.8
2015-Feb-03 19:33S 23°29' W 041°02'0 0.3
2015-Feb-03 18:33S 23°29' W 041°02'0 0.3
2015-Feb-03 17:33S 23°29' W 041°03'0 0.2
2015-Feb-03 16:33S 23°29' W 041°03'0 0.5
2015-Feb-03 15:32S 23°29' W 041°02'0 0.1
2015-Feb-03 14:33S 23°29' W 041°02'1 0.5
2015-Feb-03 13:33S 23°30' W 041°02'0 0.3
2015-Feb-03 12:32S 23°29' W 041°02'3 2.7
2015-Feb-03 11:33S 23°27' W 041°01'1 0.7
2015-Feb-03 10:33S 23°27' W 041°02'1 0.8
2015-Feb-03 09:32S 23°28' W 041°02'1 0.9
2015-Feb-03 08:32S 23°28' W 041°03'1 1.0
2015-Feb-03 07:33S 23°29' W 041°04'1 1.1
2015-Feb-03 06:31S 23°29' W 041°05'4 1.4
2015-Feb-03 03:32S 23°26' W 041°02'1 1.3
2015-Feb-03 02:33S 23°27' W 041°03'2 1.5
2015-Feb-03 01:18S 23°29' W 041°04'2 1.5
2015-Feb-03 00:07S 23°30' W 041°05'4 1.7
2015-Feb-02 21:33S 23°26' W 041°03'3 1.6
2015-Feb-02 19:32S 23°29' W 041°04'2 0.7
2015-Feb-02 16:29S 23°27' W 041°02'1 1.2
2015-Feb-02 15:33S 23°26' W 041°02'2 1.6
2015-Feb-02 14:33S 23°28' W 041°03'2 1.4
2015-Feb-02 13:26S 23°29' W 041°04'3 0.9
2015-Feb-02 10:33S 23°27' W 041°03'2 1.8
2015-Feb-02 09:31S 23°28' W 041°04'2 1.8
2015-Feb-02 08:33S 23°29' W 041°05'2 1.3
2015-Feb-02 07:25S 23°28' W 041°04'2 1.9
2015-Feb-02 06:31S 23°27' W 041°03'1 0.7
2015-Feb-02 05:23S 23°27' W 041°03'1 1.4
2015-Feb-02 04:33S 23°29' W 041°04'1 1.4
2015-Feb-02 03:29S 23°30' W 041°05'1 0.9
2015-Feb-02 02:25S 23°29' W 041°04'2 1.5
2015-Feb-02 01:20S 23°28' W 041°03'1 1.6
2015-Feb-02 00:30S 23°27' W 041°02'1 0.8
2015-Feb-01 23:33S 23°27' W 041°01'1 1.2
2015-Feb-01 22:33S 23°28' W 041°02'2 1.4
2015-Feb-01 21:26S 23°29' W 041°03'1 0.7
2015-Feb-01 20:10S 23°30' W 041°03'4 6.6
2015-Feb-01 19:33S 23°27' W 040°60'1 1.1
2015-Feb-01 18:32S 23°28' W 040°60'1 1.0
2015-Feb-01 17:33S 23°29' W 041°00'1 1.2
2015-Feb-01 16:33S 23°30' W 041°01'2 1.7
2015-Feb-01 15:25S 23°32' W 041°01'5 1.8
2015-Feb-01 12:33S 23°27' W 041°01'2 1.7
2015-Feb-01 11:33S 23°28' W 041°02'2 1.6
2015-Feb-01 10:33S 23°30' W 041°03'3 1.4
2015-Feb-01 08:33S 23°27' W 041°03'2 1.8
2015-Feb-01 07:15S 23°29' W 041°04'1 0.5
2015-Feb-01 06:04S 23°30' W 041°04'3 1.8
2015-Feb-01 04:27S 23°27' W 041°03'2 1.6
2015-Feb-01 03:18S 23°29' W 041°04'1 1.8
2015-Feb-01 02:32S 23°30' W 041°05'1 1.0
2015-Feb-01 01:26S 23°29' W 041°03'2 2.1
2015-Feb-01 00:33S 23°28' W 041°02'2 1.7
2015-Jan-31 23:25S 23°27' W 041°00'1 1.1
2015-Jan-31 22:29S 23°28' W 041°01'1 1.2
2015-Jan-31 21:32S 23°29' W 041°01'1 1.4
2015-Jan-31 20:32S 23°30' W 041°02'1 1.1
2015-Jan-31 19:20S 23°31' W 041°03'1 1.1
2015-Jan-31 18:32S 23°31' W 041°02'1 1.2
2015-Jan-31 17:26S 23°30' W 041°01'1 1.5
2015-Jan-31 16:33S 23°29' W 040°60'1 0.4
2015-Jan-31 14:33S 23°29' W 041°01'2 1.5
2015-Jan-31 13:30S 23°30' W 041°02'2 1.8
2015-Jan-31 12:32S 23°29' W 041°01'1 1.1
2015-Jan-31 11:33S 23°28' W 041°00'1 1.2
2015-Jan-31 10:33S 23°29' W 041°01'2 1.6
2015-Jan-31 09:34S 23°30' W 041°03'3 2.6
2015-Jan-31 08:25S 23°27' W 041°02'0 0.6
2015-Jan-31 07:33S 23°27' W 041°03'0 0.5
2015-Jan-31 06:33S 23°28' W 041°03'0 0.4
2015-Jan-31 05:33S 23°28' W 041°03'0 0.4
2015-Jan-31 04:33S 23°28' W 041°03'0 0.3
2015-Jan-31 03:32S 23°29' W 041°02'  
Track history (hours):
 
Tides and Currents Weather Stations Pressure Air Temp Water Temp Dewpoint Dewpoint Depression Visibility Wind Speed Wind Dir Waves Ship Positions

Vega Emtoli

Last reported at 2015-Feb-03 23:23 UTC. Time now 2015-Mar-29 09:18 UTC.
Position S 23°23' W 041°28'.
Warning: this ship's position is 53 days out of date.

Length 59 m; draft 5.2 m.

Type: Pollution control. MMSI: 258026000.

Date/timePositionNaut miles runAvg speedWind from/ knotsBaromVisibWave heightAir tempDewpointWater temp
2015-Feb-03 23:23S 23°23' W 041°28'8 8.1
2015-Feb-03 22:21S 23°25' W 041°19'8 8.1
2015-Feb-03 21:21S 23°27' W 041°11'6 7.9
2015-Feb-03 20:33S 23°28' W 041°04'2 1.8
2015-Feb-03 19:33S 23°29' W 041°02'0 0.3
2015-Feb-03 18:33S 23°29' W 041°02'0 0.3
2015-Feb-03 17:33S 23°29' W 041°03'0 0.2
2015-Feb-03 16:33S 23°29' W 041°03'0 0.5
2015-Feb-03 15:32S 23°29' W 041°02'0 0.1
2015-Feb-03 14:33S 23°29' W 041°02'1 0.5
2015-Feb-03 13:33S 23°30' W 041°02'0 0.3
2015-Feb-03 12:32S 23°29' W 041°02'3 2.7
2015-Feb-03 11:33S 23°27' W 041°01'1 0.7
2015-Feb-03 10:33S 23°27' W 041°02'1 0.8
2015-Feb-03 09:32S 23°28' W 041°02'1 0.9
2015-Feb-03 08:32S 23°28' W 041°03'1 1.0
2015-Feb-03 07:33S 23°29' W 041°04'1 1.1
2015-Feb-03 06:31S 23°29' W 041°05'4 1.4
2015-Feb-03 03:32S 23°26' W 041°02'1 1.3
2015-Feb-03 02:33S 23°27' W 041°03'2 1.5
2015-Feb-03 01:18S 23°29' W 041°04'2 1.5
2015-Feb-03 00:07S 23°30' W 041°05'4 1.7
2015-Feb-02 21:33S 23°26' W 041°03'3 1.6
2015-Feb-02 19:32S 23°29' W 041°04'2 0.7
2015-Feb-02 16:29S 23°27' W 041°02'1 1.2
2015-Feb-02 15:33S 23°26' W 041°02'2 1.6
2015-Feb-02 14:33S 23°28' W 041°03'2 1.4
2015-Feb-02 13:26S 23°29' W 041°04'3 0.9
2015-Feb-02 10:33S 23°27' W 041°03'2 1.8
2015-Feb-02 09:31S 23°28' W 041°04'2 1.8
2015-Feb-02 08:33S 23°29' W 041°05'2 1.3
2015-Feb-02 07:25S 23°28' W 041°04'2 1.9
2015-Feb-02 06:31S 23°27' W 041°03'1 0.7
2015-Feb-02 05:23S 23°27' W 041°03'1 1.4
2015-Feb-02 04:33S 23°29' W 041°04'1 1.4
2015-Feb-02 03:29S 23°30' W 041°05'1 0.9
2015-Feb-02 02:25S 23°29' W 041°04'2 1.5
2015-Feb-02 01:20S 23°28' W 041°03'1 1.6
2015-Feb-02 00:30S 23°27' W 041°02'1 0.8
2015-Feb-01 23:33S 23°27' W 041°01'1 1.2
2015-Feb-01 22:33S 23°28' W 041°02'2 1.4
2015-Feb-01 21:26S 23°29' W 041°03'1 0.7
2015-Feb-01 20:10S 23°30' W 041°03'4 6.6
2015-Feb-01 19:33S 23°27' W 040°60'1 1.1
2015-Feb-01 18:32S 23°28' W 040°60'1 1.0
2015-Feb-01 17:33S 23°29' W 041°00'1 1.2
2015-Feb-01 16:33S 23°30' W 041°01'2 1.7
2015-Feb-01 15:25S 23°32' W 041°01'5 1.8
2015-Feb-01 12:33S 23°27' W 041°01'2 1.7
2015-Feb-01 11:33S 23°28' W 041°02'2 1.6
2015-Feb-01 10:33S 23°30' W 041°03'3 1.4
2015-Feb-01 08:33S 23°27' W 041°03'2 1.8
2015-Feb-01 07:15S 23°29' W 041°04'1 0.5
2015-Feb-01 06:04S 23°30' W 041°04'3 1.8
2015-Feb-01 04:27S 23°27' W 041°03'2 1.6
2015-Feb-01 03:18S 23°29' W 041°04'1 1.8
2015-Feb-01 02:32S 23°30' W 041°05'1 1.0
2015-Feb-01 01:26S 23°29' W 041°03'2 2.1
2015-Feb-01 00:33S 23°28' W 041°02'2 1.7
2015-Jan-31 23:25S 23°27' W 041°00'1 1.1
2015-Jan-31 22:29S 23°28' W 041°01'1 1.2
2015-Jan-31 21:32S 23°29' W 041°01'1 1.4
2015-Jan-31 20:32S 23°30' W 041°02'1 1.1
2015-Jan-31 19:20S 23°31' W 041°03'1 1.1
2015-Jan-31 18:32S 23°31' W 041°02'1 1.2
2015-Jan-31 17:26S 23°30' W 041°01'1 1.5
2015-Jan-31 16:33S 23°29' W 040°60'1 0.4
2015-Jan-31 14:33S 23°29' W 041°01'2 1.5
2015-Jan-31 13:30S 23°30' W 041°02'2 1.8
2015-Jan-31 12:32S 23°29' W 041°01'1 1.1
2015-Jan-31 11:33S 23°28' W 041°00'1 1.2
2015-Jan-31 10:33S 23°29' W 041°01'2 1.6
2015-Jan-31 09:34S 23°30' W 041°03'3 2.6
2015-Jan-31 08:25S 23°27' W 041°02'0 0.6
2015-Jan-31 07:33S 23°27' W 041°03'0 0.5
2015-Jan-31 06:33S 23°28' W 041°03'0 0.4
2015-Jan-31 05:33S 23°28' W 041°03'0 0.4
2015-Jan-31 04:33S 23°28' W 041°03'0 0.3
2015-Jan-31 03:32S 23°29' W 041°02'  

Dump ship's entire track history